Airfield :
LOGIN :

Register | Disclaimer

   EN    FR    IT 

 










Legend :    VFR   Marginal VFR   IFR   Intensive IFR   Very Intensive IFR
Visi :
Ceiling :
>= 8 km
>= 3000ft
5 to 8 km
1000 to 3000 ft
1500m to 5 km
500 to 1000 ft
800 to 1500m
200 to 500 ft
< 800m
< 200 ft
Symbols :   Thunderstorms  Fog  Heavy snow  Heavy precipitations  Wind > 20 kt
SIGMETs :     Misc.  Thunderstorms  Icing  Turbulence  Mountain Waves  Volcanic Ashes






- Airport Elevation : 308 ft
- IATA code : POZ


EPPO - Poznan-Lawica

CURRENT METAR :
  • 250830Z 09008KT CAVOK 20/14 Q1021

EXPIRED METARs :
  • 250800Z 11008KT CAVOK 20/13 Q1021
  • 250730Z 12009KT CAVOK 20/14 Q1021
  • 250700Z 10006KT CAVOK 20/15 Q1021
  • 250630Z 08006KT CAVOK 20/15 Q1021
  • 250600Z 08005KT 010V100 CAVOK 19/14 Q1021
  • 250530Z 09006KT CAVOK 19/15 Q1021
  • 250500Z 09006KT CAVOK 18/14 Q1020
  • 250430Z 10005KT CAVOK 18/14 Q1020
  • 250400Z 08006KT CAVOK 18/14 Q1020
  • 250330Z 09003KT CAVOK 17/14 Q1020

TAF TAF EPPO
Valid from the 25 at 06:00 until the 26 at 06:00 UTC


250530Z 2506/2606 10010KT CAVOK



MET'MAP, your aeronautical weather chart ! - Copyright ORBIFLY December 2007 - Disclaimer

ORBIFLY MET'MAP TEAM :

Programming & Development : Alexandra Zaïnal
Original concept : Baudouin d'Aumeries
Technical & hardware support : Manuel Goepfert
Assistance : Marc-Olivier Méhu




SOURCES & CREDITS :

   NOAA